createdAt,value
2023-02-12T00:02:03.751Z,101749.94
2023-02-12T00:05:06.554Z,101753.56
2023-02-12T00:08:11.206Z,101750.91
2023-02-12T00:11:20.318Z,101748.31
2023-02-12T00:14:22.530Z,101744.81
2023-02-12T00:17:25.138Z,101737.72
2023-02-12T00:20:27.387Z,101744.88
2023-02-12T00:23:30.192Z,101754.66
2023-02-12T00:26:32.348Z,101735.37
2023-02-12T00:29:34.784Z,101749.38
2023-02-12T00:32:37.343Z,101743.34
2023-02-12T00:35:39.813Z,101742.25
2023-02-12T00:38:42.559Z,101732.50
2023-02-12T00:41:45.667Z,101732.66
2023-02-12T00:44:47.901Z,101737.97
2023-02-12T00:47:50.395Z,101743.19
2023-02-12T00:50:52.657Z,101729.25
2023-02-12T00:53:55.252Z,101729.53
2023-02-12T00:56:57.918Z,101726.16
2023-02-12T01:00:04.408Z,101719.69
2023-02-12T01:03:06.720Z,101725.56
2023-02-12T01:06:09.297Z,101725.53
2023-02-12T01:09:12.062Z,101730.81
2023-02-12T01:12:14.785Z,101735.34
2023-02-12T01:15:18.005Z,101747.44
2023-02-12T01:18:20.503Z,101738.44
2023-02-12T01:21:29.027Z,101733.03
2023-02-12T01:24:31.538Z,101741.84
2023-02-12T01:27:34.047Z,101735.03
2023-02-12T01:30:36.603Z,101711.81
2023-02-12T01:33:39.488Z,101699.88
2023-02-12T01:36:42.069Z,101711.97
2023-02-12T01:39:44.445Z,101713.34
2023-02-12T01:42:47.144Z,101720.31
2023-02-12T01:45:54.096Z,101706.50
2023-02-12T01:48:56.822Z,101719.59
2023-02-12T01:52:15.456Z,101736.06
2023-02-12T01:55:19.454Z,101724.56
2023-02-12T01:58:24.100Z,101740.59
2023-02-12T02:01:30.861Z,101741.00
2023-02-12T02:04:41.691Z,101740.25
2023-02-12T02:07:46.818Z,101743.44
2023-02-12T02:10:49.506Z,101746.38
2023-02-12T02:14:10.961Z,101744.75
2023-02-12T02:17:19.278Z,101729.88
2023-02-12T02:20:50.962Z,101747.47
2023-02-12T02:24:15.209Z,101757.75
2023-02-12T02:27:27.846Z,101765.72
2023-02-12T02:30:55.649Z,101780.53
2023-02-12T02:34:04.259Z,101780.62
2023-02-12T02:37:12.921Z,101781.75
2023-02-12T02:40:20.346Z,101782.72
2023-02-12T02:43:29.216Z,101776.81
2023-02-12T02:46:48.469Z,101781.56
2023-02-12T02:49:59.457Z,101771.81
2023-02-12T02:53:12.034Z,101781.97
2023-02-12T02:56:20.185Z,101781.97
2023-02-12T02:59:29.360Z,101788.03
2023-02-12T03:02:36.139Z,101787.09
2023-02-12T03:05:43.560Z,101802.16
2023-02-12T03:09:00.841Z,101790.59
2023-02-12T03:12:21.039Z,101801.44
2023-02-12T03:15:46.560Z,101801.31
2023-02-12T03:19:14.154Z,101805.63
2023-02-12T03:22:23.237Z,101803.00
2023-02-12T03:25:47.033Z,101811.66
2023-02-12T03:28:49.452Z,101805.41
2023-02-12T03:32:05.619Z,101802.69
2023-02-12T03:35:08.235Z,101811.34
2023-02-12T03:38:38.984Z,101808.69
2023-02-12T03:42:02.313Z,101813.94
2023-02-12T03:45:24.908Z,101822.53
2023-02-12T03:48:33.707Z,101830.22
2023-02-12T03:51:44.925Z,101843.34
2023-02-12T03:54:47.885Z,101827.63
2023-02-12T03:57:58.880Z,101842.44
2023-02-12T04:01:03.275Z,101840.00
2023-02-12T04:04:07.994Z,101847.97
2023-02-12T04:07:10.845Z,101849.81
2023-02-12T04:10:13.776Z,101866.38
2023-02-12T04:13:26.312Z,101867.41
2023-02-12T04:16:36.977Z,101869.06
2023-02-12T04:19:51.059Z,101876.84
2023-02-12T04:23:03.042Z,101876.97
2023-02-12T04:26:18.353Z,101883.91
2023-02-12T04:30:02.924Z,101891.63
2023-02-12T04:33:08.180Z,101893.56
2023-02-12T04:36:25.039Z,101898.66
2023-02-12T04:39:30.095Z,101898.66
2023-02-12T04:42:41.825Z,101893.38
2023-02-12T04:45:44.158Z,101898.53
2023-02-12T04:48:53.918Z,101909.00
2023-02-12T04:51:56.223Z,101911.78
2023-02-12T04:54:58.746Z,101919.62
2023-02-12T04:58:01.298Z,101926.09
2023-02-12T05:01:03.881Z,101932.47
2023-02-12T05:04:07.380Z,101929.72
2023-02-12T05:07:11.793Z,101942.75
2023-02-12T05:10:14.110Z,101940.88
2023-02-12T05:13:16.644Z,101946.00
2023-02-12T05:16:20.304Z,101950.56
2023-02-12T05:19:22.887Z,101963.53
2023-02-12T05:22:25.151Z,101963.53
2023-02-12T05:25:27.678Z,101967.94
2023-02-12T05:28:30.943Z,101980.41
2023-02-12T05:31:33.585Z,101992.72
2023-02-12T05:34:36.602Z,101997.72
2023-02-12T05:37:39.236Z,101988.72
2023-02-12T05:40:43.141Z,101988.22
2023-02-12T05:43:49.481Z,101996.19
2023-02-12T05:46:51.922Z,102004.53
2023-02-12T05:49:54.652Z,101996.81
2023-02-12T05:52:56.876Z,102005.53
2023-02-12T05:56:09.494Z,102016.56
2023-02-12T05:59:18.016Z,102012.13
2023-02-12T06:02:20.562Z,102014.38
2023-02-12T06:05:23.044Z,102028.41
2023-02-12T06:08:25.199Z,102038.78
2023-02-12T06:11:28.077Z,102042.69
2023-02-12T06:14:32.032Z,102046.87
2023-02-12T06:17:35.408Z,102056.25
2023-02-12T06:20:39.995Z,102053.47
2023-02-12T06:23:42.815Z,102048.09
2023-02-12T06:26:46.092Z,102059.59
2023-02-12T06:29:48.510Z,102056.16
2023-02-12T06:32:51.041Z,102061.28
2023-02-12T06:35:53.981Z,102064.75
2023-02-12T06:38:56.619Z,102075.09
2023-02-12T06:41:59.107Z,102063.69
2023-02-12T06:45:01.392Z,102075.38
2023-02-12T06:48:04.080Z,102089.22
2023-02-12T06:51:12.472Z,102089.62
2023-02-12T06:54:16.704Z,102093.50
2023-02-12T06:57:18.925Z,102103.91
2023-02-12T07:00:21.898Z,102104.37
2023-02-12T07:03:24.128Z,102110.00
2023-02-12T07:06:28.017Z,102111.97
2023-02-12T07:09:30.304Z,102111.34
2023-02-12T07:12:33.767Z,102114.06
2023-02-12T07:15:39.516Z,102125.37
2023-02-12T07:18:43.769Z,102127.81
2023-02-12T07:21:46.014Z,102130.47
2023-02-12T07:24:48.685Z,102139.09
2023-02-12T07:27:50.977Z,102148.09
2023-02-12T07:30:54.379Z,102160.03
2023-02-12T07:33:58.553Z,102163.50
2023-02-12T07:37:01.012Z,102155.72
2023-02-12T07:40:03.608Z,102159.94
2023-02-12T07:43:06.309Z,102157.06
2023-02-12T07:46:17.237Z,102167.22
2023-02-12T07:49:22.363Z,102172.28
2023-02-12T07:52:24.562Z,102175.87
2023-02-12T07:55:27.028Z,102179.19
2023-02-12T07:58:29.230Z,102180.84
2023-02-12T08:01:34.204Z,102174.81
2023-02-12T08:04:36.729Z,102179.75
2023-02-12T08:07:39.043Z,102184.81
2023-02-12T08:10:41.634Z,102185.03
2023-02-12T08:13:44.542Z,102184.59
2023-02-12T08:16:49.337Z,102185.87
2023-02-12T08:19:51.582Z,102189.75
2023-02-12T08:22:54.095Z,102186.13
2023-02-12T08:26:15.298Z,102193.78
2023-02-12T08:29:21.392Z,102196.47
2023-02-12T08:32:23.575Z,102216.41
2023-02-12T08:35:26.132Z,102207.00
2023-02-12T08:38:28.544Z,102212.38
2023-02-12T08:41:31.504Z,102208.88
2023-02-12T08:44:33.832Z,102214.19
2023-02-12T08:47:36.390Z,102212.63
2023-02-12T08:50:39.028Z,102209.19
2023-02-12T08:53:43.446Z,102212.28
2023-02-12T08:56:45.755Z,102223.69
2023-02-12T08:59:49.131Z,102230.44
2023-02-12T09:02:51.463Z,102233.59
2023-02-12T09:05:54.841Z,102236.09
2023-02-12T09:08:57.209Z,102243.22
2023-02-12T09:11:59.758Z,102246.87
2023-02-12T09:15:01.994Z,102249.03
2023-02-12T09:18:04.992Z,102249.72
2023-02-12T09:21:10.047Z,102255.16
2023-02-12T09:24:12.725Z,102261.03
2023-02-12T09:27:14.954Z,102263.19
2023-02-12T09:30:17.872Z,102262.78
2023-02-12T09:33:20.229Z,102263.81
2023-02-12T09:36:22.758Z,102268.94
2023-02-12T09:39:25.931Z,102266.41
2023-02-12T09:42:41.845Z,102265.56
2023-02-12T09:46:04.630Z,102266.44
2023-02-12T09:49:39.497Z,102268.44
2023-02-12T09:52:41.924Z,102270.97
2023-02-12T09:55:46.078Z,102271.66
2023-02-12T09:58:58.988Z,102276.84
2023-02-12T10:02:01.869Z,102274.03
2023-02-12T10:05:06.614Z,102266.00
2023-02-12T10:08:39.637Z,102275.03
2023-02-12T10:12:12.992Z,102277.91
2023-02-12T10:15:33.039Z,102278.63
2023-02-12T10:19:02.800Z,102276.88
2023-02-12T10:22:13.795Z,102281.50
2023-02-12T10:25:41.107Z,102290.34
2023-02-12T10:28:44.289Z,102293.34
2023-02-12T10:32:16.114Z,102285.19
2023-02-12T10:35:20.338Z,102290.09
2023-02-12T10:38:29.025Z,102288.41
2023-02-12T10:41:36.811Z,102295.13
2023-02-12T10:44:39.404Z,102307.72
2023-02-12T10:47:41.711Z,102302.84
2023-02-12T10:51:08.876Z,102303.19
2023-02-12T10:54:37.949Z,102303.75
2023-02-12T10:57:40.594Z,102302.94
2023-02-12T11:00:42.964Z,102293.06
2023-02-12T11:03:45.638Z,102297.81
2023-02-12T11:07:08.903Z,102290.31
2023-02-12T11:10:22.469Z,102290.06
2023-02-12T11:13:28.519Z,102292.03
2023-02-12T11:16:34.725Z,102296.72
2023-02-12T11:19:37.034Z,102295.75
2023-02-12T11:22:53.788Z,102297.97
2023-02-12T11:26:02.929Z,102292.28
2023-02-12T11:29:21.295Z,102282.53
2023-02-12T11:32:23.436Z,102296.19
2023-02-12T11:35:33.802Z,102293.78
2023-02-12T11:38:39.026Z,102291.72
2023-02-12T11:41:42.905Z,102295.28
2023-02-12T11:44:54.217Z,102294.19
2023-02-12T11:47:57.319Z,102302.94
2023-02-12T11:51:03.825Z,102297.97
2023-02-12T11:54:06.582Z,102298.09
2023-02-12T11:57:36.723Z,102299.31
2023-02-12T12:01:02.793Z,102298.09
2023-02-12T12:04:08.519Z,102295.94
2023-02-12T12:07:22.620Z,102293.12
2023-02-12T12:10:36.548Z,102284.56
2023-02-12T12:13:48.555Z,102282.41
2023-02-12T12:17:13.391Z,102283.09
2023-02-12T12:20:25.061Z,102280.53
2023-02-12T12:23:35.742Z,102281.56
2023-02-12T12:26:40.952Z,102275.31
2023-02-12T12:30:00.925Z,102280.72
2023-02-12T12:33:09.072Z,102275.25
2023-02-12T12:36:14.303Z,102275.25
2023-02-12T12:39:25.473Z,102275.81
2023-02-12T12:42:30.921Z,102276.72
2023-02-12T12:46:08.050Z,102279.50
2023-02-12T12:49:24.736Z,102278.16
2023-02-12T12:52:38.709Z,102282.66
2023-02-12T12:56:14.987Z,102280.19
2023-02-12T12:59:30.112Z,102276.91
2023-02-12T13:02:51.335Z,102289.94
2023-02-12T13:06:29.022Z,102286.28
2023-02-12T13:09:49.637Z,102283.69
2023-02-12T13:12:57.749Z,102281.75
2023-02-12T13:16:16.403Z,102283.31
2023-02-12T13:19:31.503Z,102284.44
2023-02-12T13:22:48.483Z,102281.31
2023-02-12T13:26:13.992Z,102285.16
2023-02-12T13:29:16.380Z,102279.12
2023-02-12T13:32:30.797Z,102289.97
2023-02-12T13:35:36.773Z,102293.63
2023-02-12T13:38:44.524Z,102298.00
2023-02-12T13:42:00.727Z,102293.41
2023-02-12T13:45:19.645Z,102299.91
2023-02-12T13:48:34.490Z,102295.78
2023-02-12T13:51:45.002Z,102298.25
2023-02-12T13:55:19.623Z,102297.66
2023-02-12T13:58:40.185Z,102308.03
2023-02-12T14:01:47.504Z,102306.09
2023-02-12T14:04:53.356Z,102309.41
2023-02-12T14:07:58.977Z,102313.72
2023-02-12T14:11:08.575Z,102308.81
2023-02-12T14:14:10.952Z,102306.50
2023-02-12T14:17:28.867Z,102301.28
2023-02-12T14:20:40.352Z,102311.91
2023-02-12T14:23:46.443Z,102306.78
2023-02-12T14:26:48.910Z,102310.34
2023-02-12T14:30:09.997Z,102312.56
2023-02-12T14:33:26.994Z,102318.78
2023-02-12T14:36:32.462Z,102317.06
2023-02-12T14:39:34.769Z,102317.44
2023-02-12T14:42:37.291Z,102325.59
2023-02-12T14:45:39.558Z,102332.88
2023-02-12T14:49:05.905Z,102329.25
2023-02-12T14:52:11.773Z,102336.13
2023-02-12T14:55:35.284Z,102332.50
2023-02-12T14:58:37.917Z,102339.63
2023-02-12T15:01:42.519Z,102336.13
2023-02-12T15:04:45.748Z,102331.63
2023-02-12T15:08:12.013Z,102335.19
2023-02-12T15:11:21.597Z,102327.25
2023-02-12T15:14:28.314Z,102319.50
2023-02-12T15:17:39.391Z,102336.19
2023-02-12T15:20:50.644Z,102337.78
2023-02-12T15:24:11.755Z,102339.34
2023-02-12T15:27:15.865Z,102332.78
2023-02-12T15:30:26.381Z,102338.47
2023-02-12T15:33:33.371Z,102344.16
2023-02-12T15:36:36.063Z,102342.72
2023-02-12T15:39:44.380Z,102349.50
2023-02-12T15:42:54.326Z,102345.78
2023-02-12T15:45:58.047Z,102346.50
2023-02-12T15:49:00.353Z,102344.41
2023-02-12T15:52:22.036Z,102356.06
2023-02-12T15:55:27.986Z,102356.69
2023-02-12T15:58:36.867Z,102368.25
2023-02-12T16:01:40.744Z,102366.03
2023-02-12T16:04:44.853Z,102367.25
2023-02-12T16:07:47.080Z,102377.81
2023-02-12T16:10:53.138Z,102380.69
2023-02-12T16:14:01.602Z,102380.03
2023-02-12T16:17:04.325Z,102388.25
2023-02-12T16:20:24.752Z,102388.66
2023-02-12T16:23:27.419Z,102397.81
2023-02-12T16:26:29.815Z,102401.62
2023-02-12T16:29:35.926Z,102408.00
2023-02-12T16:32:40.568Z,102409.78
2023-02-12T16:35:43.107Z,102411.62
2023-02-12T16:38:49.647Z,102409.19
2023-02-12T16:41:56.083Z,102411.16
2023-02-12T16:44:58.382Z,102413.09
2023-02-12T16:48:08.767Z,102414.16
2023-02-12T16:51:24.917Z,102425.63
2023-02-12T16:54:32.183Z,102431.81
2023-02-12T16:57:34.396Z,102438.84
2023-02-12T17:00:36.944Z,102447.66
2023-02-12T17:03:39.913Z,102446.81
2023-02-12T17:06:43.530Z,102447.53
2023-02-12T17:09:45.838Z,102446.66
2023-02-12T17:12:51.487Z,102458.75
2023-02-12T17:16:01.502Z,102455.50
2023-02-12T17:19:04.158Z,102457.34
2023-02-12T17:22:08.926Z,102461.69
2023-02-12T17:25:13.528Z,102457.34
2023-02-12T17:28:15.942Z,102458.25
2023-02-12T17:31:20.684Z,102453.91
2023-02-12T17:34:23.712Z,102459.28
2023-02-12T17:37:26.267Z,102456.75
2023-02-12T17:40:28.506Z,102460.28
2023-02-12T17:43:31.200Z,102462.78
2023-02-12T17:46:33.902Z,102465.38
2023-02-12T17:49:38.635Z,102463.78
2023-02-12T17:52:41.008Z,102475.31
2023-02-12T17:55:43.550Z,102474.59
2023-02-12T17:58:46.587Z,102485.22
2023-02-12T18:01:49.045Z,102484.37
2023-02-12T18:04:51.914Z,102481.88
2023-02-12T18:07:54.423Z,102481.06
2023-02-12T18:10:57.250Z,102488.06
2023-02-12T18:14:00.269Z,102483.78
2023-02-12T18:17:03.067Z,102484.69
2023-02-12T18:20:06.419Z,102492.59
2023-02-12T18:23:10.152Z,102484.75
2023-02-12T18:26:15.855Z,102485.66
2023-02-12T18:29:18.365Z,102492.69
2023-02-12T18:32:20.519Z,102505.84
2023-02-12T18:35:23.814Z,102497.13
2023-02-12T18:38:26.108Z,102492.72
2023-02-12T18:41:31.446Z,102498.88
2023-02-12T18:44:33.685Z,102499.56
2023-02-12T18:47:36.411Z,102506.62
2023-02-12T18:50:38.789Z,102504.13
2023-02-12T18:53:41.882Z,102505.94
2023-02-12T18:56:46.785Z,102506.84
2023-02-12T18:59:50.752Z,102521.75
2023-02-12T19:02:52.935Z,102519.16
2023-02-12T19:06:03.794Z,102505.09
2023-02-12T19:09:06.691Z,102503.31
2023-02-12T19:12:09.192Z,102511.19
2023-02-12T19:15:11.781Z,102511.19
2023-02-12T19:18:16.285Z,102512.09
2023-02-12T19:21:18.938Z,102508.59
2023-02-12T19:24:21.768Z,102517.44
2023-02-12T19:27:24.029Z,102518.34
2023-02-12T19:30:26.551Z,102516.62
2023-02-12T19:33:28.740Z,102528.81
2023-02-12T19:36:33.090Z,102534.09
2023-02-12T19:39:35.314Z,102528.88
2023-02-12T19:42:37.783Z,102527.12
2023-02-12T19:45:39.984Z,102532.38
2023-02-12T19:48:43.775Z,102530.63
2023-02-12T19:51:46.907Z,102545.44
2023-02-12T19:54:49.444Z,102541.09
2023-02-12T19:57:51.718Z,102542.81
2023-02-12T20:00:54.548Z,102545.44
2023-02-12T20:03:58.220Z,102541.09
2023-02-12T20:07:00.476Z,102548.91
2023-02-12T20:10:03.208Z,102555.00
2023-02-12T20:13:05.625Z,102553.25
2023-02-12T20:16:11.583Z,102561.13
2023-02-12T20:19:27.430Z,102564.59
2023-02-12T20:22:29.981Z,102566.31
2023-02-12T20:25:32.222Z,102565.47
2023-02-12T20:28:36.981Z,102568.06
2023-02-12T20:31:39.393Z,102584.59
2023-02-12T20:34:50.523Z,102579.34
2023-02-12T20:37:53.226Z,102590.66
2023-02-12T20:40:56.064Z,102590.66
2023-02-12T20:44:00.843Z,102592.41
2023-02-12T20:47:03.583Z,102595.87
2023-02-12T20:50:06.572Z,102593.28
2023-02-12T20:53:09.277Z,102598.53
2023-02-12T20:56:15.228Z,102606.37
2023-02-12T20:59:18.832Z,102603.75
2023-02-12T21:02:21.109Z,102608.97
2023-02-12T21:05:23.672Z,102618.53
2023-02-12T21:08:25.972Z,102621.12
2023-02-12T21:11:29.704Z,102612.47
2023-02-12T21:14:31.898Z,102618.53
2023-02-12T21:17:34.894Z,102624.66
2023-02-12T21:20:37.074Z,102619.41
2023-02-12T21:23:40.206Z,102613.31
2023-02-12T21:26:42.863Z,102616.78
2023-02-12T21:29:45.514Z,102617.66
2023-02-12T21:32:47.801Z,102614.13
2023-02-12T21:35:50.457Z,102615.88
2023-02-12T21:38:53.540Z,102613.28
2023-02-12T21:41:59.974Z,102610.72
2023-02-12T21:45:02.257Z,102619.41
2023-02-12T21:48:05.031Z,102615.03
2023-02-12T21:51:15.663Z,102624.56
2023-02-12T21:54:18.933Z,102626.31
2023-02-12T21:57:21.862Z,102621.12
2023-02-12T22:00:24.595Z,102635.03
2023-02-12T22:03:27.536Z,102650.63
2023-02-12T22:06:30.261Z,102659.31
2023-02-12T22:09:32.945Z,102653.19
2023-02-12T22:12:36.019Z,102656.69
2023-02-12T22:15:38.579Z,102657.50
2023-02-12T22:18:41.735Z,102659.25
2023-02-12T22:21:44.551Z,102667.88
2023-02-12T22:24:46.873Z,102674.81
2023-02-12T22:27:49.407Z,102671.34
2023-02-12T22:30:51.661Z,102680.00
2023-02-12T22:33:56.523Z,102675.66
2023-02-12T22:36:58.697Z,102668.69
2023-02-12T22:40:01.218Z,102664.37
2023-02-12T22:43:03.396Z,102677.34
2023-02-12T22:46:07.894Z,102677.31
2023-02-12T22:49:10.520Z,102675.56
2023-02-12T22:52:13.026Z,102678.19
2023-02-12T22:55:15.389Z,102686.00
2023-02-12T22:58:18.301Z,102673.78
2023-02-12T23:01:21.139Z,102674.56
2023-02-12T23:04:23.835Z,102664.06
2023-02-12T23:07:26.336Z,102672.72
2023-02-12T23:10:28.929Z,102675.34
2023-02-12T23:13:31.268Z,102678.88
2023-02-12T23:16:33.837Z,102684.91
2023-02-12T23:19:36.059Z,102683.09
2023-02-12T23:22:38.627Z,102686.72
2023-02-12T23:25:41.657Z,102685.78
2023-02-12T23:28:44.212Z,102684.88
2023-02-12T23:31:47.010Z,102684.81
2023-02-12T23:34:49.634Z,102684.84
2023-02-12T23:37:52.107Z,102688.19
2023-02-12T23:40:54.809Z,102689.03
2023-02-12T23:43:57.241Z,102685.47
2023-02-12T23:47:01.805Z,102690.75
2023-02-12T23:50:04.733Z,102683.13
2023-02-12T23:53:07.427Z,102688.50
2023-02-12T23:56:09.700Z,102684.94
2023-02-12T23:59:12.243Z,102680.41
